sensor_id;sensor_type;location;lat;lon;timestamp;P1;durP1;ratioP1;P2;durP2;ratioP2
73428;SDS011;61643;49.564;17.412;2022-12-16T00:00:46;60.13;;;21.80;;
73428;SDS011;61643;49.564;17.412;2022-12-16T00:03:11;58.03;;;22.03;;
73428;SDS011;61643;49.564;17.412;2022-12-16T00:05:36;64.10;;;23.27;;
73428;SDS011;61643;49.564;17.412;2022-12-16T00:08:03;62.80;;;21.80;;
73428;SDS011;61643;49.564;17.412;2022-12-16T00:10:28;61.83;;;23.33;;
73428;SDS011;61643;49.564;17.412;2022-12-16T00:13:14;68.95;;;25.58;;
73428;SDS011;61643;49.564;17.412;2022-12-16T00:15:39;65.50;;;24.30;;
73428;SDS011;61643;49.564;17.412;2022-12-16T00:18:05;66.90;;;24.57;;
73428;SDS011;61643;49.564;17.412;2022-12-16T00:20:30;64.43;;;23.77;;
73428;SDS011;61643;49.564;17.412;2022-12-16T00:22:55;66.47;;;23.70;;
73428;SDS011;61643;49.564;17.412;2022-12-16T00:25:21;68.00;;;24.50;;
73428;SDS011;61643;49.564;17.412;2022-12-16T00:27:46;78.13;;;26.27;;
73428;SDS011;61643;49.564;17.412;2022-12-16T00:30:11;66.63;;;24.70;;
73428;SDS011;61643;49.564;17.412;2022-12-16T00:32:37;73.50;;;25.33;;
73428;SDS011;61643;49.564;17.412;2022-12-16T00:35:02;64.90;;;23.37;;
73428;SDS011;61643;49.564;17.412;2022-12-16T00:37:28;68.22;;;24.38;;
73428;SDS011;61643;49.564;17.412;2022-12-16T00:39:53;69.53;;;24.80;;
73428;SDS011;61643;49.564;17.412;2022-12-16T00:42:19;63.93;;;23.37;;
73428;SDS011;61643;49.564;17.412;2022-12-16T00:44:44;63.07;;;22.17;;
73428;SDS011;61643;49.564;17.412;2022-12-16T00:47:09;64.50;;;23.53;;
73428;SDS011;61643;49.564;17.412;2022-12-16T00:49:35;63.93;;;23.63;;
73428;SDS011;61643;49.564;17.412;2022-12-16T00:52:00;69.63;;;25.60;;
73428;SDS011;61643;49.564;17.412;2022-12-16T00:54:26;64.33;;;23.47;;
73428;SDS011;61643;49.564;17.412;2022-12-16T00:56:51;62.97;;;23.67;;
73428;SDS011;61643;49.564;17.412;2022-12-16T00:59:17;64.82;;;22.67;;
73428;SDS011;61643;49.564;17.412;2022-12-16T01:01:42;67.70;;;25.20;;
73428;SDS011;61643;49.564;17.412;2022-12-16T01:04:08;65.23;;;23.60;;
73428;SDS011;61643;49.564;17.412;2022-12-16T01:06:33;60.20;;;23.73;;
73428;SDS011;61643;49.564;17.412;2022-12-16T01:08:58;66.70;;;23.67;;
73428;SDS011;61643;49.564;17.412;2022-12-16T01:11:24;69.70;;;23.80;;
73428;SDS011;61643;49.564;17.412;2022-12-16T01:13:49;64.20;;;24.40;;
73428;SDS011;61643;49.564;17.412;2022-12-16T01:16:15;68.80;;;24.25;;
73428;SDS011;61643;49.564;17.412;2022-12-16T01:18:40;69.90;;;24.10;;
73428;SDS011;61643;49.564;17.412;2022-12-16T01:21:06;66.13;;;25.30;;
73428;SDS011;61643;49.564;17.412;2022-12-16T01:23:36;66.18;;;25.10;;
73428;SDS011;61643;49.564;17.412;2022-12-16T01:26:01;67.03;;;24.40;;
73428;SDS011;61643;49.564;17.412;2022-12-16T01:28:27;63.08;;;23.48;;
73428;SDS011;61643;49.564;17.412;2022-12-16T01:30:57;63.63;;;23.23;;
73428;SDS011;61643;49.564;17.412;2022-12-16T01:33:26;61.33;;;22.13;;
73428;SDS011;61643;49.564;17.412;2022-12-16T01:36:02;71.40;;;24.25;;
73428;SDS011;61643;49.564;17.412;2022-12-16T01:38:29;65.82;;;25.45;;
73428;SDS011;61643;49.564;17.412;2022-12-16T01:40:55;60.67;;;23.17;;
73428;SDS011;61643;49.564;17.412;2022-12-16T01:43:28;67.70;;;24.55;;
73428;SDS011;61643;49.564;17.412;2022-12-16T01:45:57;66.45;;;24.25;;
73428;SDS011;61643;49.564;17.412;2022-12-16T01:48:31;67.80;;;22.73;;
73428;SDS011;61643;49.564;17.412;2022-12-16T01:51:04;60.58;;;24.38;;
73428;SDS011;61643;49.564;17.412;2022-12-16T01:53:34;69.25;;;25.63;;
73428;SDS011;61643;49.564;17.412;2022-12-16T01:56:01;69.20;;;24.73;;
73428;SDS011;61643;49.564;17.412;2022-12-16T01:58:29;72.93;;;25.45;;
73428;SDS011;61643;49.564;17.412;2022-12-16T02:00:57;71.78;;;26.73;;
73428;SDS011;61643;49.564;17.412;2022-12-16T02:03:23;76.85;;;27.15;;
73428;SDS011;61643;49.564;17.412;2022-12-16T02:05:50;70.97;;;25.88;;
73428;SDS011;61643;49.564;17.412;2022-12-16T02:08:17;65.72;;;23.20;;
73428;SDS011;61643;49.564;17.412;2022-12-16T02:24:19;53.33;;;20.08;;
73428;SDS011;61643;49.564;17.412;2022-12-16T02:30:00;57.03;;;19.42;;
73428;SDS011;61643;49.564;17.412;2022-12-16T02:33:03;61.55;;;21.58;;
73428;SDS011;61643;49.564;17.412;2022-12-16T02:35:55;50.10;;;18.65;;
73428;SDS011;61643;49.564;17.412;2022-12-16T02:38:44;58.47;;;19.88;;
73428;SDS011;61643;49.564;17.412;2022-12-16T02:43:54;67.80;;;21.98;;
73428;SDS011;61643;49.564;17.412;2022-12-16T02:46:27;57.90;;;21.60;;
73428;SDS011;61643;49.564;17.412;2022-12-16T02:48:54;63.33;;;21.58;;
73428;SDS011;61643;49.564;17.412;2022-12-16T02:51:20;59.38;;;21.83;;
73428;SDS011;61643;49.564;17.412;2022-12-16T02:53:49;59.85;;;21.20;;
73428;SDS011;61643;49.564;17.412;2022-12-16T02:59:13;61.58;;;23.23;;
73428;SDS011;61643;49.564;17.412;2022-12-16T03:01:46;61.20;;;21.02;;
73428;SDS011;61643;49.564;17.412;2022-12-16T03:04:21;55.70;;;20.75;;
73428;SDS011;61643;49.564;17.412;2022-12-16T03:06:55;53.35;;;19.27;;
73428;SDS011;61643;49.564;17.412;2022-12-16T03:09:25;54.88;;;19.20;;
73428;SDS011;61643;49.564;17.412;2022-12-16T03:11:54;55.60;;;20.10;;
73428;SDS011;61643;49.564;17.412;2022-12-16T03:14:22;48.65;;;18.00;;
73428;SDS011;61643;49.564;17.412;2022-12-16T03:16:51;50.25;;;19.45;;
73428;SDS011;61643;49.564;17.412;2022-12-16T03:19:16;53.78;;;19.75;;
73428;SDS011;61643;49.564;17.412;2022-12-16T03:21:47;57.83;;;19.58;;
73428;SDS011;61643;49.564;17.412;2022-12-16T03:24:25;59.38;;;20.88;;
73428;SDS011;61643;49.564;17.412;2022-12-16T03:26:55;57.15;;;20.08;;
73428;SDS011;61643;49.564;17.412;2022-12-16T03:29:29;57.22;;;20.85;;
73428;SDS011;61643;49.564;17.412;2022-12-16T03:31:58;53.67;;;20.35;;
73428;SDS011;61643;49.564;17.412;2022-12-16T03:34:34;46.50;;;18.13;;
73428;SDS011;61643;49.564;17.412;2022-12-16T03:37:07;52.13;;;19.02;;
73428;SDS011;61643;49.564;17.412;2022-12-16T03:39:35;54.08;;;19.85;;
73428;SDS011;61643;49.564;17.412;2022-12-16T03:42:05;59.65;;;20.58;;
73428;SDS011;61643;49.564;17.412;2022-12-16T03:44:33;49.70;;;19.77;;
73428;SDS011;61643;49.564;17.412;2022-12-16T03:46:59;58.17;;;20.75;;
73428;SDS011;61643;49.564;17.412;2022-12-16T03:49:25;49.25;;;19.10;;
73428;SDS011;61643;49.564;17.412;2022-12-16T03:51:51;60.80;;;19.97;;
73428;SDS011;61643;49.564;17.412;2022-12-16T03:54:18;52.03;;;18.60;;
73428;SDS011;61643;49.564;17.412;2022-12-16T03:56:43;52.00;;;19.87;;
73428;SDS011;61643;49.564;17.412;2022-12-16T03:59:08;53.13;;;19.53;;
73428;SDS011;61643;49.564;17.412;2022-12-16T04:01:35;53.50;;;18.95;;
73428;SDS011;61643;49.564;17.412;2022-12-16T04:04:01;55.28;;;19.92;;
73428;SDS011;61643;49.564;17.412;2022-12-16T04:06:27;55.20;;;20.98;;
73428;SDS011;61643;49.564;17.412;2022-12-16T04:08:52;64.03;;;21.40;;
73428;SDS011;61643;49.564;17.412;2022-12-16T04:11:17;62.37;;;22.03;;
73428;SDS011;61643;49.564;17.412;2022-12-16T04:14:01;62.35;;;23.00;;
73428;SDS011;61643;49.564;17.412;2022-12-16T04:16:45;57.60;;;20.80;;
73428;SDS011;61643;49.564;17.412;2022-12-16T04:19:30;60.53;;;21.55;;
73428;SDS011;61643;49.564;17.412;2022-12-16T04:22:17;56.83;;;20.25;;
73428;SDS011;61643;49.564;17.412;2022-12-16T04:25:09;56.92;;;20.38;;
73428;SDS011;61643;49.564;17.412;2022-12-16T04:27:37;55.17;;;20.08;;
73428;SDS011;61643;49.564;17.412;2022-12-16T04:30:03;49.08;;;20.63;;
73428;SDS011;61643;49.564;17.412;2022-12-16T04:32:46;51.85;;;18.33;;
73428;SDS011;61643;49.564;17.412;2022-12-16T04:35:34;43.88;;;16.00;;
73428;SDS011;61643;49.564;17.412;2022-12-16T04:38:18;55.90;;;18.80;;
73428;SDS011;61643;49.564;17.412;2022-12-16T04:41:03;62.90;;;22.10;;
73428;SDS011;61643;49.564;17.412;2022-12-16T04:43:46;51.35;;;18.88;;
73428;SDS011;61643;49.564;17.412;2022-12-16T04:46:31;69.95;;;26.48;;
73428;SDS011;61643;49.564;17.412;2022-12-16T04:49:14;45.45;;;17.95;;
73428;SDS011;61643;49.564;17.412;2022-12-16T04:51:58;68.13;;;24.92;;
73428;SDS011;61643;49.564;17.412;2022-12-16T04:54:44;66.55;;;23.27;;
73428;SDS011;61643;49.564;17.412;2022-12-16T04:57:27;61.05;;;20.58;;
73428;SDS011;61643;49.564;17.412;2022-12-16T05:00:11;62.28;;;20.92;;
73428;SDS011;61643;49.564;17.412;2022-12-16T05:02:55;69.55;;;23.10;;
73428;SDS011;61643;49.564;17.412;2022-12-16T05:05:39;43.13;;;14.02;;
73428;SDS011;61643;49.564;17.412;2022-12-16T05:08:23;64.63;;;22.98;;
73428;SDS011;61643;49.564;17.412;2022-12-16T05:11:06;58.60;;;20.50;;
73428;SDS011;61643;49.564;17.412;2022-12-16T05:13:50;72.38;;;23.65;;
73428;SDS011;61643;49.564;17.412;2022-12-16T05:16:34;74.95;;;26.23;;
73428;SDS011;61643;49.564;17.412;2022-12-16T05:19:18;67.10;;;23.52;;
73428;SDS011;61643;49.564;17.412;2022-12-16T05:22:02;73.35;;;23.27;;
73428;SDS011;61643;49.564;17.412;2022-12-16T05:24:45;65.13;;;22.55;;
73428;SDS011;61643;49.564;17.412;2022-12-16T05:27:30;85.03;;;25.02;;
73428;SDS011;61643;49.564;17.412;2022-12-16T05:30:14;71.30;;;23.17;;
73428;SDS011;61643;49.564;17.412;2022-12-16T05:32:58;66.03;;;23.27;;
73428;SDS011;61643;49.564;17.412;2022-12-16T05:35:42;65.57;;;20.25;;
73428;SDS011;61643;49.564;17.412;2022-12-16T05:38:26;56.42;;;18.20;;
73428;SDS011;61643;49.564;17.412;2022-12-16T05:41:10;34.72;;;12.02;;
73428;SDS011;61643;49.564;17.412;2022-12-16T05:43:54;64.07;;;20.38;;
73428;SDS011;61643;49.564;17.412;2022-12-16T05:46:37;65.10;;;22.33;;
73428;SDS011;61643;49.564;17.412;2022-12-16T05:49:21;65.13;;;21.77;;
73428;SDS011;61643;49.564;17.412;2022-12-16T05:52:05;66.28;;;21.63;;
73428;SDS011;61643;49.564;17.412;2022-12-16T05:54:48;57.72;;;20.55;;
73428;SDS011;61643;49.564;17.412;2022-12-16T05:57:32;64.45;;;22.67;;
73428;SDS011;61643;49.564;17.412;2022-12-16T06:00:16;57.47;;;20.45;;
73428;SDS011;61643;49.564;17.412;2022-12-16T06:03:00;57.47;;;19.60;;
73428;SDS011;61643;49.564;17.412;2022-12-16T06:05:43;55.63;;;20.48;;
73428;SDS011;61643;49.564;17.412;2022-12-16T06:08:27;65.70;;;23.13;;
73428;SDS011;61643;49.564;17.412;2022-12-16T06:11:11;55.92;;;20.60;;
73428;SDS011;61643;49.564;17.412;2022-12-16T06:13:58;48.22;;;15.57;;
73428;SDS011;61643;49.564;17.412;2022-12-16T06:16:41;64.43;;;21.08;;
73428;SDS011;61643;49.564;17.412;2022-12-16T06:19:25;65.40;;;21.00;;
73428;SDS011;61643;49.564;17.412;2022-12-16T06:22:09;64.72;;;23.25;;
73428;SDS011;61643;49.564;17.412;2022-12-16T06:24:53;51.03;;;18.67;;
73428;SDS011;61643;49.564;17.412;2022-12-16T06:27:36;54.00;;;20.85;;
73428;SDS011;61643;49.564;17.412;2022-12-16T06:30:22;44.00;;;16.30;;
73428;SDS011;61643;49.564;17.412;2022-12-16T06:33:06;55.33;;;17.60;;
73428;SDS011;61643;49.564;17.412;2022-12-16T06:35:50;42.38;;;15.68;;
73428;SDS011;61643;49.564;17.412;2022-12-16T06:38:33;59.15;;;21.42;;
73428;SDS011;61643;49.564;17.412;2022-12-16T06:41:17;56.20;;;20.70;;
73428;SDS011;61643;49.564;17.412;2022-12-16T06:44:01;52.60;;;19.00;;
73428;SDS011;61643;49.564;17.412;2022-12-16T06:46:44;54.25;;;20.55;;
73428;SDS011;61643;49.564;17.412;2022-12-16T06:49:28;54.38;;;20.60;;
73428;SDS011;61643;49.564;17.412;2022-12-16T06:52:12;56.92;;;19.27;;
73428;SDS011;61643;49.564;17.412;2022-12-16T06:54:55;54.85;;;19.95;;
73428;SDS011;61643;49.564;17.412;2022-12-16T06:57:39;44.17;;;17.13;;
73428;SDS011;61643;49.564;17.412;2022-12-16T07:00:23;54.90;;;20.20;;
73428;SDS011;61643;49.564;17.412;2022-12-16T07:03:06;55.72;;;19.85;;
73428;SDS011;61643;49.564;17.412;2022-12-16T07:05:52;43.55;;;15.65;;
73428;SDS011;61643;49.564;17.412;2022-12-16T07:08:37;52.53;;;19.25;;
73428;SDS011;61643;49.564;17.412;2022-12-16T07:11:21;48.33;;;16.67;;
73428;SDS011;61643;49.564;17.412;2022-12-16T07:14:04;50.60;;;17.95;;
73428;SDS011;61643;49.564;17.412;2022-12-16T07:16:48;49.28;;;17.73;;
73428;SDS011;61643;49.564;17.412;2022-12-16T07:19:32;48.80;;;17.08;;
73428;SDS011;61643;49.564;17.412;2022-12-16T07:22:16;56.25;;;21.02;;
73428;SDS011;61643;49.564;17.412;2022-12-16T07:24:59;57.38;;;19.02;;
73428;SDS011;61643;49.564;17.412;2022-12-16T07:27:46;52.63;;;19.55;;
73428;SDS011;61643;49.564;17.412;2022-12-16T07:30:30;46.17;;;16.35;;
73428;SDS011;61643;49.564;17.412;2022-12-16T07:33:14;56.45;;;20.98;;
73428;SDS011;61643;49.564;17.412;2022-12-16T07:35:58;51.47;;;18.20;;
73428;SDS011;61643;49.564;17.412;2022-12-16T07:38:41;48.78;;;16.23;;
73428;SDS011;61643;49.564;17.412;2022-12-16T07:41:25;49.25;;;17.40;;
73428;SDS011;61643;49.564;17.412;2022-12-16T07:44:09;55.53;;;19.95;;
73428;SDS011;61643;49.564;17.412;2022-12-16T07:46:53;58.10;;;20.73;;
73428;SDS011;61643;49.564;17.412;2022-12-16T07:49:36;59.78;;;19.55;;
73428;SDS011;61643;49.564;17.412;2022-12-16T07:52:20;65.35;;;22.48;;
73428;SDS011;61643;49.564;17.412;2022-12-16T07:55:04;73.25;;;24.65;;
73428;SDS011;61643;49.564;17.412;2022-12-16T07:57:50;66.93;;;22.20;;
73428;SDS011;61643;49.564;17.412;2022-12-16T08:00:35;59.83;;;22.35;;
73428;SDS011;61643;49.564;17.412;2022-12-16T08:03:19;69.30;;;23.05;;
73428;SDS011;61643;49.564;17.412;2022-12-16T08:06:03;69.25;;;22.98;;
73428;SDS011;61643;49.564;17.412;2022-12-16T08:08:47;70.65;;;25.00;;
73428;SDS011;61643;49.564;17.412;2022-12-16T08:11:31;59.00;;;21.77;;
73428;SDS011;61643;49.564;17.412;2022-12-16T08:14:14;62.47;;;22.50;;
73428;SDS011;61643;49.564;17.412;2022-12-16T08:16:58;68.50;;;23.38;;
73428;SDS011;61643;49.564;17.412;2022-12-16T08:19:42;52.88;;;19.27;;
73428;SDS011;61643;49.564;17.412;2022-12-16T08:22:26;57.95;;;18.23;;
73428;SDS011;61643;49.564;17.412;2022-12-16T08:25:10;34.72;;;15.57;;
73428;SDS011;61643;49.564;17.412;2022-12-16T08:27:54;47.58;;;17.75;;
73428;SDS011;61643;49.564;17.412;2022-12-16T08:30:39;49.17;;;19.20;;
73428;SDS011;61643;49.564;17.412;2022-12-16T08:33:23;60.97;;;22.25;;
73428;SDS011;61643;49.564;17.412;2022-12-16T08:36:07;49.88;;;17.65;;
73428;SDS011;61643;49.564;17.412;2022-12-16T08:38:51;55.55;;;20.35;;
73428;SDS011;61643;49.564;17.412;2022-12-16T08:41:34;54.55;;;19.17;;
73428;SDS011;61643;49.564;17.412;2022-12-16T08:44:19;47.25;;;16.08;;
73428;SDS011;61643;49.564;17.412;2022-12-16T08:47:02;48.28;;;18.15;;
73428;SDS011;61643;49.564;17.412;2022-12-16T08:49:47;40.00;;;15.48;;
73428;SDS011;61643;49.564;17.412;2022-12-16T08:52:31;37.08;;;12.27;;
73428;SDS011;61643;49.564;17.412;2022-12-16T08:55:15;42.78;;;16.30;;
73428;SDS011;61643;49.564;17.412;2022-12-16T08:58:00;48.97;;;18.63;;
73428;SDS011;61643;49.564;17.412;2022-12-16T09:00:44;38.55;;;14.57;;
73428;SDS011;61643;49.564;17.412;2022-12-16T09:03:27;29.92;;;11.85;;
73428;SDS011;61643;49.564;17.412;2022-12-16T09:06:11;51.13;;;18.52;;
73428;SDS011;61643;49.564;17.412;2022-12-16T09:08:54;46.50;;;16.40;;
73428;SDS011;61643;49.564;17.412;2022-12-16T09:11:38;49.17;;;17.88;;
73428;SDS011;61643;49.564;17.412;2022-12-16T09:14:22;52.92;;;18.20;;
73428;SDS011;61643;49.564;17.412;2022-12-16T09:17:06;46.47;;;16.80;;
73428;SDS011;61643;49.564;17.412;2022-12-16T09:19:49;53.10;;;20.77;;
73428;SDS011;61643;49.564;17.412;2022-12-16T09:22:33;51.95;;;18.42;;
73428;SDS011;61643;49.564;17.412;2022-12-16T09:25:17;53.85;;;19.70;;
73428;SDS011;61643;49.564;17.412;2022-12-16T09:28:00;59.10;;;20.77;;
73428;SDS011;61643;49.564;17.412;2022-12-16T09:30:44;46.42;;;18.40;;
73428;SDS011;61643;49.564;17.412;2022-12-16T09:33:28;51.10;;;18.17;;
73428;SDS011;61643;49.564;17.412;2022-12-16T09:36:11;50.38;;;17.52;;
73428;SDS011;61643;49.564;17.412;2022-12-16T09:38:55;48.92;;;18.63;;
73428;SDS011;61643;49.564;17.412;2022-12-16T09:41:53;49.97;;;17.67;;
73428;SDS011;61643;49.564;17.412;2022-12-16T09:50:33;51.20;;;20.02;;
73428;SDS011;61643;49.564;17.412;2022-12-16T09:53:22;47.53;;;17.98;;
73428;SDS011;61643;49.564;17.412;2022-12-16T09:56:13;47.60;;;18.35;;
73428;SDS011;61643;49.564;17.412;2022-12-16T09:59:14;45.35;;;17.90;;
73428;SDS011;61643;49.564;17.412;2022-12-16T10:02:07;53.58;;;19.33;;
73428;SDS011;61643;49.564;17.412;2022-12-16T10:04:53;47.70;;;18.45;;
73428;SDS011;61643;49.564;17.412;2022-12-16T10:07:39;51.30;;;18.45;;
73428;SDS011;61643;49.564;17.412;2022-12-16T10:10:51;40.13;;;16.20;;
73428;SDS011;61643;49.564;17.412;2022-12-16T10:13:47;40.58;;;15.73;;
73428;SDS011;61643;49.564;17.412;2022-12-16T10:26:07;44.85;;;16.40;;
73428;SDS011;61643;49.564;17.412;2022-12-16T10:29:26;47.58;;;17.40;;
73428;SDS011;61643;49.564;17.412;2022-12-16T10:32:24;49.85;;;16.70;;
73428;SDS011;61643;49.564;17.412;2022-12-16T10:35:17;45.60;;;16.10;;
73428;SDS011;61643;49.564;17.412;2022-12-16T10:38:05;43.00;;;17.13;;
73428;SDS011;61643;49.564;17.412;2022-12-16T10:41:01;45.63;;;16.80;;
73428;SDS011;61643;49.564;17.412;2022-12-16T10:43:46;52.60;;;18.55;;
73428;SDS011;61643;49.564;17.412;2022-12-16T10:46:32;50.72;;;18.75;;
73428;SDS011;61643;49.564;17.412;2022-12-16T10:49:17;51.50;;;19.50;;
73428;SDS011;61643;49.564;17.412;2022-12-16T10:52:03;47.17;;;18.13;;
73428;SDS011;61643;49.564;17.412;2022-12-16T10:54:54;51.17;;;17.85;;
73428;SDS011;61643;49.564;17.412;2022-12-16T10:57:49;46.13;;;16.98;;
73428;SDS011;61643;49.564;17.412;2022-12-16T11:00:48;48.92;;;18.20;;
73428;SDS011;61643;49.564;17.412;2022-12-16T11:03:34;45.28;;;16.70;;
73428;SDS011;61643;49.564;17.412;2022-12-16T11:06:27;43.10;;;17.45;;
73428;SDS011;61643;49.564;17.412;2022-12-16T11:09:31;43.42;;;16.38;;
73428;SDS011;61643;49.564;17.412;2022-12-16T11:12:24;49.53;;;16.58;;
73428;SDS011;61643;49.564;17.412;2022-12-16T11:15:17;44.15;;;17.15;;
73428;SDS011;61643;49.564;17.412;2022-12-16T11:18:04;52.35;;;19.38;;
73428;SDS011;61643;49.564;17.412;2022-12-16T11:21:05;38.90;;;16.60;;
73428;SDS011;61643;49.564;17.412;2022-12-16T11:27:38;42.83;;;16.55;;
73428;SDS011;61643;49.564;17.412;2022-12-16T11:32:55;45.80;;;16.95;;
73428;SDS011;61643;49.564;17.412;2022-12-16T11:35:49;43.40;;;15.52;;
73428;SDS011;61643;49.564;17.412;2022-12-16T11:38:40;44.25;;;17.38;;
73428;SDS011;61643;49.564;17.412;2022-12-16T11:41:32;41.65;;;16.20;;
73428;SDS011;61643;49.564;17.412;2022-12-16T11:47:10;42.97;;;15.70;;
73428;SDS011;61643;49.564;17.412;2022-12-16T11:50:26;46.38;;;18.35;;
73428;SDS011;61643;49.564;17.412;2022-12-16T11:56:25;46.63;;;17.55;;
73428;SDS011;61643;49.564;17.412;2022-12-16T12:02:02;42.58;;;16.48;;
73428;SDS011;61643;49.564;17.412;2022-12-16T12:04:54;47.70;;;16.13;;
73428;SDS011;61643;49.564;17.412;2022-12-16T12:07:42;33.33;;;12.82;;
73428;SDS011;61643;49.564;17.412;2022-12-16T12:13:58;36.33;;;13.70;;
73428;SDS011;61643;49.564;17.412;2022-12-16T12:19:47;42.47;;;14.60;;
73428;SDS011;61643;49.564;17.412;2022-12-16T12:22:38;43.58;;;14.27;;
73428;SDS011;61643;49.564;17.412;2022-12-16T12:25:44;33.60;;;13.35;;
73428;SDS011;61643;49.564;17.412;2022-12-16T12:28:50;27.50;;;10.95;;
73428;SDS011;61643;49.564;17.412;2022-12-16T12:32:01;28.15;;;10.45;;
73428;SDS011;61643;49.564;17.412;2022-12-16T12:44:50;27.63;;;11.35;;
73428;SDS011;61643;49.564;17.412;2022-12-16T12:47:52;32.97;;;11.85;;
73428;SDS011;61643;49.564;17.412;2022-12-16T12:50:59;24.88;;;10.30;;
73428;SDS011;61643;49.564;17.412;2022-12-16T12:57:16;27.40;;;9.57;;
73428;SDS011;61643;49.564;17.412;2022-12-16T13:00:05;30.88;;;10.75;;
73428;SDS011;61643;49.564;17.412;2022-12-16T13:06:16;29.15;;;9.88;;
73428;SDS011;61643;49.564;17.412;2022-12-16T13:09:02;32.10;;;14.18;;
73428;SDS011;61643;49.564;17.412;2022-12-16T13:18:11;37.38;;;14.15;;
73428;SDS011;61643;49.564;17.412;2022-12-16T13:20:45;40.50;;;14.60;;
73428;SDS011;61643;49.564;17.412;2022-12-16T13:23:34;31.77;;;12.40;;
73428;SDS011;61643;49.564;17.412;2022-12-16T13:26:20;49.42;;;16.95;;
73428;SDS011;61643;49.564;17.412;2022-12-16T13:35:04;41.00;;;14.20;;
73428;SDS011;61643;49.564;17.412;2022-12-16T13:38:04;34.42;;;13.68;;
73428;SDS011;61643;49.564;17.412;2022-12-16T13:41:02;36.17;;;14.45;;
73428;SDS011;61643;49.564;17.412;2022-12-16T13:43:52;42.38;;;14.18;;
73428;SDS011;61643;49.564;17.412;2022-12-16T13:52:22;31.45;;;12.65;;
73428;SDS011;61643;49.564;17.412;2022-12-16T13:55:39;34.70;;;13.18;;
73428;SDS011;61643;49.564;17.412;2022-12-16T13:58:35;30.63;;;11.52;;
73428;SDS011;61643;49.564;17.412;2022-12-16T14:01:28;36.25;;;14.38;;
73428;SDS011;61643;49.564;17.412;2022-12-16T14:04:21;32.90;;;13.35;;
73428;SDS011;61643;49.564;17.412;2022-12-16T14:07:15;35.63;;;13.68;;
73428;SDS011;61643;49.564;17.412;2022-12-16T14:10:00;41.50;;;14.63;;
73428;SDS011;61643;49.564;17.412;2022-12-16T14:19:15;34.67;;;13.52;;
73428;SDS011;61643;49.564;17.412;2022-12-16T14:25:13;49.88;;;17.27;;
73428;SDS011;61643;49.564;17.412;2022-12-16T14:27:59;36.92;;;14.13;;
73428;SDS011;61643;49.564;17.412;2022-12-16T14:30:44;31.75;;;13.77;;
73428;SDS011;61643;49.564;17.412;2022-12-16T14:34:04;26.58;;;11.10;;
73428;SDS011;61643;49.564;17.412;2022-12-16T14:36:58;23.80;;;8.68;;
73428;SDS011;61643;49.564;17.412;2022-12-16T14:39:47;37.47;;;13.82;;
73428;SDS011;61643;49.564;17.412;2022-12-16T14:42:31;23.00;;;10.32;;
73428;SDS011;61643;49.564;17.412;2022-12-16T14:45:19;33.20;;;14.05;;
73428;SDS011;61643;49.564;17.412;2022-12-16T14:48:30;39.88;;;13.65;;
73428;SDS011;61643;49.564;17.412;2022-12-16T14:57:17;34.53;;;14.90;;
73428;SDS011;61643;49.564;17.412;2022-12-16T15:02:53;38.58;;;14.30;;
73428;SDS011;61643;49.564;17.412;2022-12-16T15:05:44;42.72;;;15.50;;
73428;SDS011;61643;49.564;17.412;2022-12-16T15:08:30;42.53;;;15.63;;
73428;SDS011;61643;49.564;17.412;2022-12-16T15:11:18;39.83;;;14.65;;
73428;SDS011;61643;49.564;17.412;2022-12-16T15:14:05;42.03;;;17.08;;
73428;SDS011;61643;49.564;17.412;2022-12-16T15:16:53;32.50;;;13.75;;
73428;SDS011;61643;49.564;17.412;2022-12-16T15:19:42;31.40;;;12.98;;
73428;SDS011;61643;49.564;17.412;2022-12-16T15:22:29;41.47;;;15.35;;
73428;SDS011;61643;49.564;17.412;2022-12-16T15:25:20;40.35;;;14.60;;
73428;SDS011;61643;49.564;17.412;2022-12-16T15:28:27;42.38;;;16.55;;
73428;SDS011;61643;49.564;17.412;2022-12-16T15:31:23;42.38;;;15.90;;
73428;SDS011;61643;49.564;17.412;2022-12-16T15:37:14;40.00;;;16.13;;
73428;SDS011;61643;49.564;17.412;2022-12-16T15:39:59;47.65;;;18.48;;
73428;SDS011;61643;49.564;17.412;2022-12-16T15:42:46;53.65;;;19.75;;
73428;SDS011;61643;49.564;17.412;2022-12-16T15:45:32;44.78;;;17.02;;
73428;SDS011;61643;49.564;17.412;2022-12-16T15:48:24;45.00;;;16.73;;
73428;SDS011;61643;49.564;17.412;2022-12-16T15:51:27;30.52;;;11.45;;
73428;SDS011;61643;49.564;17.412;2022-12-16T15:54:22;33.53;;;12.30;;
73428;SDS011;61643;49.564;17.412;2022-12-16T15:57:53;27.20;;;9.68;;
73428;SDS011;61643;49.564;17.412;2022-12-16T16:06:14;51.15;;;18.65;;
73428;SDS011;61643;49.564;17.412;2022-12-16T16:09:14;47.47;;;18.05;;
73428;SDS011;61643;49.564;17.412;2022-12-16T16:12:09;49.88;;;17.73;;
73428;SDS011;61643;49.564;17.412;2022-12-16T16:14:58;49.80;;;18.48;;
73428;SDS011;61643;49.564;17.412;2022-12-16T16:17:42;43.15;;;16.75;;
73428;SDS011;61643;49.564;17.412;2022-12-16T16:20:27;58.10;;;19.40;;
73428;SDS011;61643;49.564;17.412;2022-12-16T16:23:11;48.95;;;17.85;;
73428;SDS011;61643;49.564;17.412;2022-12-16T16:25:55;33.58;;;11.93;;
73428;SDS011;61643;49.564;17.412;2022-12-16T16:28:40;48.13;;;17.65;;
73428;SDS011;61643;49.564;17.412;2022-12-16T16:31:23;45.75;;;17.38;;
73428;SDS011;61643;49.564;17.412;2022-12-16T16:34:08;46.78;;;17.83;;
73428;SDS011;61643;49.564;17.412;2022-12-16T16:36:53;48.53;;;18.05;;
73428;SDS011;61643;49.564;17.412;2022-12-16T16:39:38;54.97;;;19.83;;
73428;SDS011;61643;49.564;17.412;2022-12-16T16:42:22;27.42;;;8.20;;
73428;SDS011;61643;49.564;17.412;2022-12-16T16:45:06;30.58;;;10.73;;
73428;SDS011;61643;49.564;17.412;2022-12-16T16:47:55;43.92;;;17.08;;
73428;SDS011;61643;49.564;17.412;2022-12-16T16:50:47;36.03;;;14.20;;
73428;SDS011;61643;49.564;17.412;2022-12-16T16:53:32;38.63;;;14.88;;
73428;SDS011;61643;49.564;17.412;2022-12-16T16:56:16;39.38;;;15.38;;
73428;SDS011;61643;49.564;17.412;2022-12-16T16:59:00;38.15;;;15.35;;
73428;SDS011;61643;49.564;17.412;2022-12-16T17:01:44;32.42;;;12.07;;
73428;SDS011;61643;49.564;17.412;2022-12-16T17:04:27;33.28;;;12.18;;
73428;SDS011;61643;49.564;17.412;2022-12-16T17:07:11;37.20;;;14.20;;
73428;SDS011;61643;49.564;17.412;2022-12-16T17:09:55;33.55;;;13.77;;
73428;SDS011;61643;49.564;17.412;2022-12-16T17:12:39;31.52;;;10.50;;
73428;SDS011;61643;49.564;17.412;2022-12-16T17:15:27;36.97;;;14.68;;
73428;SDS011;61643;49.564;17.412;2022-12-16T17:18:18;33.72;;;12.98;;
73428;SDS011;61643;49.564;17.412;2022-12-16T17:21:01;40.80;;;15.20;;
73428;SDS011;61643;49.564;17.412;2022-12-16T17:23:53;45.17;;;17.15;;
73428;SDS011;61643;49.564;17.412;2022-12-16T17:26:41;56.67;;;16.48;;
73428;SDS011;61643;49.564;17.412;2022-12-16T17:29:25;46.67;;;16.40;;
73428;SDS011;61643;49.564;17.412;2022-12-16T17:32:10;42.45;;;15.40;;
73428;SDS011;61643;49.564;17.412;2022-12-16T17:34:54;33.05;;;11.35;;
73428;SDS011;61643;49.564;17.412;2022-12-16T17:37:38;44.00;;;17.70;;